Tusket, Canada
Current Conditions -  °F | °C
As of 4:00 AM on Friday 24 Oct 2014 (Local Time) from CYQI Reporting Station
Few Clouds Few Clouds  
Wind Chill: 55°   Ceiling: Unl
Heat Index: 55°   Visibility: 12mi
Dew Point: 55°   Wind: 14mph
Humidity: 100%   Direction: 80°E
Pressure: 29.52"   Gusts: NA
Location:  43.86°N, 65.98°W
Report Text: CYQI 240700Z 08012KT 12SM FEW025 13/13 A2952 RMK SC1 SC TR SLP996 DENSITY ALT 400FT
Loading
Personal Weather Stations






























Interactive Weather Map
Tropical Storm Tracking
New forecast layout! Learn more

10-Day Weather Forecast

Advertisements
Track Severe Weather on mobile